sensor_id;sensor_type;location;lat;lon;timestamp;temperature;humidity
12164;DHT22;6145;50.192;10.064;2023-06-14T00:01:02;19.50;44.60
12164;DHT22;6145;50.192;10.064;2023-06-14T00:03:31;19.50;44.70
12164;DHT22;6145;50.192;10.064;2023-06-14T00:05:58;19.50;44.70
12164;DHT22;6145;50.192;10.064;2023-06-14T00:08:25;19.40;44.70
12164;DHT22;6145;50.192;10.064;2023-06-14T00:10:53;19.40;44.80
12164;DHT22;6145;50.192;10.064;2023-06-14T00:13:20;19.30;44.80
12164;DHT22;6145;50.192;10.064;2023-06-14T00:15:47;19.30;45.00
12164;DHT22;6145;50.192;10.064;2023-06-14T00:18:14;19.30;45.20
12164;DHT22;6145;50.192;10.064;2023-06-14T00:20:42;19.30;45.20
12164;DHT22;6145;50.192;10.064;2023-06-14T00:23:09;19.20;45.40
12164;DHT22;6145;50.192;10.064;2023-06-14T00:25:36;19.20;45.30
12164;DHT22;6145;50.192;10.064;2023-06-14T00:28:04;19.00;45.80
12164;DHT22;6145;50.192;10.064;2023-06-14T00:30:31;19.10;45.40
12164;DHT22;6145;50.192;10.064;2023-06-14T00:32:58;20.20;46.30
12164;DHT22;6145;50.192;10.064;2023-06-14T00:35:25;19.00;45.40
12164;DHT22;6145;50.192;10.064;2023-06-14T00:37:52;19.10;45.60
12164;DHT22;6145;50.192;10.064;2023-06-14T00:40:20;19.00;45.70
12164;DHT22;6145;50.192;10.064;2023-06-14T00:42:47;18.90;45.60
12164;DHT22;6145;50.192;10.064;2023-06-14T00:45:16;18.90;45.90
12164;DHT22;6145;50.192;10.064;2023-06-14T00:47:43;18.80;45.90
12164;DHT22;6145;50.192;10.064;2023-06-14T00:50:10;18.80;45.90
12164;DHT22;6145;50.192;10.064;2023-06-14T00:52:39;18.80;46.10
12164;DHT22;6145;50.192;10.064;2023-06-14T00:55:07;18.90;46.30
12164;DHT22;6145;50.192;10.064;2023-06-14T00:57:34;18.70;46.20
12164;DHT22;6145;50.192;10.064;2023-06-14T01:00:03;18.70;46.40
12164;DHT22;6145;50.192;10.064;2023-06-14T01:02:36;18.60;46.50
12164;DHT22;6145;50.192;10.064;2023-06-14T01:05:13;18.60;46.60
12164;DHT22;6145;50.192;10.064;2023-06-14T01:08:05;18.60;46.70
12164;DHT22;6145;50.192;10.064;2023-06-14T01:10:39;18.50;46.70
12164;DHT22;6145;50.192;10.064;2023-06-14T01:13:12;18.50;47.00
12164;DHT22;6145;50.192;10.064;2023-06-14T01:15:43;18.50;47.20
12164;DHT22;6145;50.192;10.064;2023-06-14T01:18:12;18.40;47.10
12164;DHT22;6145;50.192;10.064;2023-06-14T01:30:39;18.20;47.50
12164;DHT22;6145;50.192;10.064;2023-06-14T01:33:10;18.20;47.70
12164;DHT22;6145;50.192;10.064;2023-06-14T01:35:38;18.10;47.80
12164;DHT22;6145;50.192;10.064;2023-06-14T01:41:47;18.00;47.90
12164;DHT22;6145;50.192;10.064;2023-06-14T01:44:16;18.00;48.10
12164;DHT22;6145;50.192;10.064;2023-06-14T01:46:45;17.90;48.00
12164;DHT22;6145;50.192;10.064;2023-06-14T01:49:13;17.80;48.00
12164;DHT22;6145;50.192;10.064;2023-06-14T01:51:40;17.80;48.10
12164;DHT22;6145;50.192;10.064;2023-06-14T01:54:06;17.70;48.10
12164;DHT22;6145;50.192;10.064;2023-06-14T01:56:33;17.70;48.20
12164;DHT22;6145;50.192;10.064;2023-06-14T01:59:00;17.70;48.40
12164;DHT22;6145;50.192;10.064;2023-06-14T02:01:27;17.50;48.30
12164;DHT22;6145;50.192;10.064;2023-06-14T02:03:56;17.90;48.80
12164;DHT22;6145;50.192;10.064;2023-06-14T02:06:26;17.80;49.00
12164;DHT22;6145;50.192;10.064;2023-06-14T02:08:53;17.60;49.00
12164;DHT22;6145;50.192;10.064;2023-06-14T02:11:20;17.60;49.00
12164;DHT22;6145;50.192;10.064;2023-06-14T02:13:47;17.40;49.00
12164;DHT22;6145;50.192;10.064;2023-06-14T02:16:13;17.40;49.00
12164;DHT22;6145;50.192;10.064;2023-06-14T02:18:42;17.40;49.10
12164;DHT22;6145;50.192;10.064;2023-06-14T02:24:33;17.20;49.30
12164;DHT22;6145;50.192;10.064;2023-06-14T02:27:01;17.20;49.30
12164;DHT22;6145;50.192;10.064;2023-06-14T02:29:28;17.20;49.50
12164;DHT22;6145;50.192;10.064;2023-06-14T02:31:54;17.20;49.60
12164;DHT22;6145;50.192;10.064;2023-06-14T02:34:21;17.10;49.50
12164;DHT22;6145;50.192;10.064;2023-06-14T02:36:48;17.30;49.70
12164;DHT22;6145;50.192;10.064;2023-06-14T02:39:15;17.10;49.90
12164;DHT22;6145;50.192;10.064;2023-06-14T02:41:44;17.00;49.60
12164;DHT22;6145;50.192;10.064;2023-06-14T02:44:13;17.00;49.70
12164;DHT22;6145;50.192;10.064;2023-06-14T02:46:40;17.00;49.90
12164;DHT22;6145;50.192;10.064;2023-06-14T02:49:09;17.10;50.40
12164;DHT22;6145;50.192;10.064;2023-06-14T02:51:36;18.40;51.70
12164;DHT22;6145;50.192;10.064;2023-06-14T02:54:03;16.90;50.20
12164;DHT22;6145;50.192;10.064;2023-06-14T02:56:29;16.80;50.10
12164;DHT22;6145;50.192;10.064;2023-06-14T02:58:58;18.40;51.90
12164;DHT22;6145;50.192;10.064;2023-06-14T03:01:25;16.70;50.20
12164;DHT22;6145;50.192;10.064;2023-06-14T03:03:59;16.70;50.40
12164;DHT22;6145;50.192;10.064;2023-06-14T03:06:27;16.70;50.50
12164;DHT22;6145;50.192;10.064;2023-06-14T03:08:55;16.70;50.50
12164;DHT22;6145;50.192;10.064;2023-06-14T03:11:31;16.70;50.50
12164;DHT22;6145;50.192;10.064;2023-06-14T03:14:00;16.80;50.60
12164;DHT22;6145;50.192;10.064;2023-06-14T03:16:29;16.70;50.50
12164;DHT22;6145;50.192;10.064;2023-06-14T03:18:57;17.20;50.90
12164;DHT22;6145;50.192;10.064;2023-06-14T03:21:24;16.60;50.90
12164;DHT22;6145;50.192;10.064;2023-06-14T03:23:51;17.10;51.20
12164;DHT22;6145;50.192;10.064;2023-06-14T03:26:18;16.50;50.80
12164;DHT22;6145;50.192;10.064;2023-06-14T03:28:45;16.50;51.10
12164;DHT22;6145;50.192;10.064;2023-06-14T03:31:14;16.50;51.10
12164;DHT22;6145;50.192;10.064;2023-06-14T03:33:42;16.40;51.60
12164;DHT22;6145;50.192;10.064;2023-06-14T03:36:08;16.30;51.20
12164;DHT22;6145;50.192;10.064;2023-06-14T03:38:35;16.40;51.20
12164;DHT22;6145;50.192;10.064;2023-06-14T03:41:02;16.50;51.60
12164;DHT22;6145;50.192;10.064;2023-06-14T03:43:29;16.30;51.80
12164;DHT22;6145;50.192;10.064;2023-06-14T03:45:56;16.30;52.00
12164;DHT22;6145;50.192;10.064;2023-06-14T03:48:25;16.20;52.10
12164;DHT22;6145;50.192;10.064;2023-06-14T03:50:52;16.20;51.90
12164;DHT22;6145;50.192;10.064;2023-06-14T03:53:20;16.20;52.20
12164;DHT22;6145;50.192;10.064;2023-06-14T03:55:48;16.20;52.40
12164;DHT22;6145;50.192;10.064;2023-06-14T03:58:17;16.20;52.60
12164;DHT22;6145;50.192;10.064;2023-06-14T04:00:44;16.10;52.70
12164;DHT22;6145;50.192;10.064;2023-06-14T04:03:11;16.10;53.10
12164;DHT22;6145;50.192;10.064;2023-06-14T04:05:40;16.00;53.30
12164;DHT22;6145;50.192;10.064;2023-06-14T04:08:07;16.10;53.00
12164;DHT22;6145;50.192;10.064;2023-06-14T04:10:35;16.00;53.20
12164;DHT22;6145;50.192;10.064;2023-06-14T04:13:02;16.00;53.10
12164;DHT22;6145;50.192;10.064;2023-06-14T04:15:30;15.90;53.20
12164;DHT22;6145;50.192;10.064;2023-06-14T04:17:57;16.00;53.50
12164;DHT22;6145;50.192;10.064;2023-06-14T04:20:23;16.00;53.50
12164;DHT22;6145;50.192;10.064;2023-06-14T04:22:52;16.00;53.30
12164;DHT22;6145;50.192;10.064;2023-06-14T04:25:19;16.00;53.50
12164;DHT22;6145;50.192;10.064;2023-06-14T04:27:47;16.00;53.80
12164;DHT22;6145;50.192;10.064;2023-06-14T04:30:15;16.00;54.00
12164;DHT22;6145;50.192;10.064;2023-06-14T04:32:42;16.00;53.90
12164;DHT22;6145;50.192;10.064;2023-06-14T04:35:09;16.00;53.70
12164;DHT22;6145;50.192;10.064;2023-06-14T04:37:36;16.00;53.70
12164;DHT22;6145;50.192;10.064;2023-06-14T04:40:11;16.00;53.90
12164;DHT22;6145;50.192;10.064;2023-06-14T04:42:38;16.00;54.00
12164;DHT22;6145;50.192;10.064;2023-06-14T04:45:07;16.00;54.10
12164;DHT22;6145;50.192;10.064;2023-06-14T04:47:35;16.00;54.20
12164;DHT22;6145;50.192;10.064;2023-06-14T04:50:03;16.70;55.10
12164;DHT22;6145;50.192;10.064;2023-06-14T04:52:30;16.00;54.60
12164;DHT22;6145;50.192;10.064;2023-06-14T04:54:58;16.00;54.40
12164;DHT22;6145;50.192;10.064;2023-06-14T05:17:33;16.00;55.50
12164;DHT22;6145;50.192;10.064;2023-06-14T05:20:01;15.90;55.40
12164;DHT22;6145;50.192;10.064;2023-06-14T05:22:28;16.00;55.80
